Time;durP1;ratioP1;P1;durP2;ratioP2;P2;SDS_P1;SDS_P2;PMS_P1;PMS_P2;Temp;Humidity;BMP_temperature;BMP_pressure;BME280_temperature;BME280_humidity;BME280_pressure;Samples;Min_cycle;Max_cycle;Signal;HPM_P1;HPM_P2
2022/12/02 00:01:28;;;;;;;48.23;25.47;;;1.20;99.90;;;-141.84;83.58;18568.19;4993415;28;20230;-61
2022/12/02 00:03:56;;;;;;;48.03;25.60;;;1.20;99.90;;;-141.84;83.20;18558.03;4992355;28;20238;-61
2022/12/02 00:06:30;;;;;;;48.73;24.53;;;1.20;99.90;;;-141.84;82.44;18584.47;4992345;28;20290;-61
2022/12/02 00:09:12;;;;;;;46.53;24.20;;;1.30;99.90;;;-141.84;82.99;18598.69;5008577;28;20229;-60
2022/12/02 00:11:40;;;;;;;43.97;24.60;;;1.30;99.90;;;-141.84;82.65;18572.25;5011503;28;20229;-61
2022/12/02 00:14:20;;;;;;;45.80;24.93;;;1.30;99.90;;;-141.84;82.90;18537.72;5011424;28;20737;-62
2022/12/02 00:16:50;;;;;;;45.07;24.13;;;1.30;99.90;;;-141.84;83.47;18566.16;5011517;28;20730;-60
2022/12/02 00:19:19;;;;;;;45.57;24.47;;;1.20;99.90;;;-141.84;83.75;18566.16;5011436;28;20234;-61
2022/12/02 00:21:48;;;;;;;46.27;25.37;;;1.20;99.90;;;-141.84;83.66;18582.44;5011899;28;20222;-62
2022/12/02 00:24:17;;;;;;;47.40;24.47;;;1.20;99.90;;;-141.84;83.54;18578.38;5006155;28;20234;-61
2022/12/02 00:26:46;;;;;;;45.40;24.17;;;1.20;99.90;;;-141.84;83.81;18564.13;4991522;28;20234;-61
2022/12/02 00:29:14;;;;;;;47.67;24.20;;;1.20;99.90;;;-141.84;83.68;18600.72;4991597;28;20227;-61
2022/12/02 00:31:43;;;;;;;44.97;24.93;;;1.20;99.90;;;-141.84;83.30;18582.44;4991673;28;20315;-60
2022/12/02 00:34:12;;;;;;;47.37;25.77;;;1.40;99.90;;;-141.84;83.50;18588.53;4991583;28;20211;-62
2022/12/02 00:36:40;;;;;;;44.03;23.30;;;1.20;99.90;;;-141.84;84.08;18572.25;4992213;28;20208;-60
2022/12/02 00:39:08;;;;;;;46.23;24.17;;;1.10;99.90;;;-141.84;84.12;18556.00;4991445;28;20602;-61
2022/12/02 00:41:36;;;;;;;45.93;23.10;;;1.20;99.90;;;-141.84;83.71;18562.09;4991197;28;20244;-61
2022/12/02 00:46:51;;;;;;;42.03;22.77;;;1.30;99.90;;;-141.84;83.98;18547.88;5011130;28;20633;-60
2022/12/02 00:49:20;;;;;;;46.00;24.20;;;1.20;99.90;;;-141.84;84.25;18549.91;5010824;28;20243;-62
2022/12/02 00:51:49;;;;;;;46.40;23.37;;;1.50;99.90;;;-141.84;84.22;18576.31;5011761;28;20179;-62
2022/12/02 00:54:18;;;;;;;45.67;23.80;;;1.10;99.90;;;-141.84;84.50;18533.66;5004319;28;20231;-61
2022/12/02 00:56:46;;;;;;;41.83;23.93;;;1.10;99.90;;;-141.84;84.51;18562.09;5006211;28;20235;-62
2022/12/02 00:59:14;;;;;;;45.17;24.50;;;1.10;99.90;;;-141.84;84.61;18562.09;5010218;28;20230;-61
2022/12/02 01:01:43;;;;;;;44.33;23.53;;;1.10;99.90;;;-141.84;84.38;18547.88;5010377;28;20721;-61
2022/12/02 01:04:12;;;;;;;42.63;22.60;;;1.10;99.90;;;-141.84;84.02;18521.47;5010929;28;20199;-61
2022/12/02 01:06:41;;;;;;;47.40;25.33;;;1.30;99.90;;;-141.84;83.36;18564.13;5011518;28;20260;-61
2022/12/02 01:09:10;;;;;;;44.43;23.53;;;1.30;99.90;;;-141.84;83.29;18556.00;5010644;28;20230;-61
2022/12/02 01:11:38;;;;;;;44.50;24.70;;;1.30;99.90;;;-141.84;82.72;18564.13;5010776;28;20226;-61
2022/12/02 01:14:06;;;;;;;42.90;23.10;;;1.40;99.90;;;-141.84;83.05;18553.97;5010498;28;20648;-62
2022/12/02 01:16:34;;;;;;;44.67;23.50;;;1.30;99.90;;;-141.84;82.58;18578.38;5010972;28;20576;-62
2022/12/02 01:19:03;;;;;;;40.13;22.77;;;1.40;99.90;;;-141.84;82.76;18590.56;5011069;28;20576;-62
2022/12/02 01:21:31;;;;;;;41.57;22.77;;;1.30;99.90;;;-141.84;82.69;18596.66;5011059;28;20234;-61
2022/12/02 01:24:01;;;;;;;40.33;23.13;;;1.40;99.90;;;-141.84;82.33;18566.16;5010405;28;20230;-61
2022/12/02 01:26:29;;;;;;;39.83;23.67;;;1.40;99.90;;;-141.84;83.08;18568.19;4997906;28;20290;-63
2022/12/02 01:28:57;;;;;;;40.83;23.20;;;1.40;99.90;;;-141.84;83.15;18606.81;4991399;28;20719;-62
2022/12/02 01:31:25;;;;;;;40.53;22.23;;;1.30;99.90;;;-141.84;83.40;18549.91;4991181;28;20235;-62
2022/12/02 01:33:53;;;;;;;45.40;22.97;;;1.30;99.90;;;-141.84;83.74;18535.69;4991752;28;20207;-62
2022/12/02 01:36:22;;;;;;;41.27;22.23;;;1.30;99.90;;;-141.84;83.80;18553.97;4991111;28;20760;-63
2022/12/02 01:38:50;;;;;;;44.57;24.07;;;1.30;99.90;;;-141.84;84.04;18529.59;4992271;28;20719;-64
2022/12/02 01:41:19;;;;;;;43.30;23.60;;;1.30;99.90;;;-141.84;84.51;18558.03;4994546;28;20247;-63
2022/12/02 01:43:48;;;;;;;42.97;23.50;;;1.20;99.90;;;-141.84;84.42;18590.56;5001714;28;20762;-63
2022/12/02 01:46:16;;;;;;;44.27;23.63;;;1.30;99.90;;;-141.84;83.91;18592.59;5014371;28;20238;-63
2022/12/02 01:48:45;;;;;;;41.00;22.57;;;1.30;99.90;;;-141.84;83.54;18553.97;5014388;28;20725;-62
2022/12/02 01:51:13;;;;;;;38.60;22.27;;;1.40;99.90;;;-141.84;83.63;18594.63;5013523;28;20777;-63
2022/12/02 01:53:41;;;;;;;40.87;22.87;;;1.30;99.90;;;-141.84;84.27;18533.66;5013412;28;20226;-62
2022/12/02 01:56:11;;;;;;;42.63;24.13;;;1.30;99.90;;;-141.84;84.45;18582.44;5003534;28;20632;-65
2022/12/02 01:58:40;;;;;;;39.63;22.47;;;1.30;99.90;;;-141.84;84.38;18580.41;5000395;28;20230;-63
2022/12/02 02:01:24;;;;;;;40.80;23.10;;;1.30;99.90;;;-141.84;84.39;18539.75;5013890;28;20223;-63
2022/12/02 02:03:52;;;;;;;42.17;22.90;;;1.20;99.90;;;-141.84;84.69;18543.81;5014383;28;20214;-62
2022/12/02 02:06:23;;;;;;;42.00;22.73;;;1.20;99.90;;;-141.84;84.95;18556.00;5013956;28;20222;-63
2022/12/02 02:08:52;;;;;;;41.07;24.03;;;1.20;99.90;;;-141.84;85.04;18553.97;5013725;28;20316;-64
2022/12/02 02:11:21;;;;;;;43.57;23.77;;;1.20;99.90;;;-141.84;84.66;18513.34;5013437;28;20288;-63
2022/12/02 02:13:51;;;;;;;41.70;22.80;;;1.30;99.90;;;-141.84;84.68;18558.03;5013801;28;20241;-63
2022/12/02 02:16:19;;;;;;;41.63;23.63;;;1.20;99.90;;;-141.84;84.90;18560.06;5013928;28;20236;-62
2022/12/02 02:18:48;;;;;;;38.80;22.27;;;1.10;99.90;;;-141.84;85.05;18549.91;5014141;28;20207;-63
2022/12/02 02:21:23;;;;;;;42.63;24.47;;;1.10;99.90;;;-141.84;84.72;18574.28;5013201;28;20232;-64
2022/12/02 02:23:53;;;;;;;40.93;23.10;;;1.10;99.90;;;-141.84;84.74;18527.56;5011970;28;20237;-63
2022/12/02 02:26:22;;;;;;;39.33;22.47;;;1.20;99.90;;;-141.84;84.99;18547.88;5005653;28;20227;-63
2022/12/02 02:28:50;;;;;;;39.17;22.57;;;1.20;99.90;;;-141.84;85.01;18596.66;5013907;28;20229;-63
2022/12/02 02:31:19;;;;;;;40.97;21.97;;;1.20;99.90;;;-141.84;84.63;18558.03;5002640;28;20234;-63
2022/12/02 02:33:49;;;;;;;40.00;23.60;;;1.30;99.90;;;-141.84;84.13;18566.16;5002998;28;20641;-63
2022/12/02 02:36:17;;;;;;;39.50;22.70;;;1.30;99.90;;;-141.84;84.13;18586.50;4993022;28;20231;-63
2022/12/02 02:38:48;;;;;;;40.67;22.53;;;1.30;99.90;;;-141.84;85.04;18558.03;4993675;28;20330;-63
2022/12/02 02:41:18;;;;;;;38.80;22.10;;;1.20;99.90;;;-141.84;85.36;18517.41;4993308;28;20430;-63
2022/12/02 02:43:47;;;;;;;38.63;21.93;;;1.30;99.90;;;-141.84;85.57;18525.53;5005137;28;20226;-63
2022/12/02 02:46:15;;;;;;;41.80;23.50;;;1.20;99.90;;;-141.84;85.58;18551.94;5013086;28;20256;-63
2022/12/02 02:48:45;;;;;;;41.37;22.10;;;1.10;99.90;;;-141.84;85.07;18519.44;5013375;28;20231;-63
2022/12/02 02:51:14;;;;;;;34.60;21.17;;;1.20;99.90;;;-141.84;85.26;18525.53;5001922;28;20225;-61
2022/12/02 02:53:43;;;;;;;38.10;21.93;;;1.20;99.90;;;-141.84;85.14;18572.25;4974389;28;20232;-62
2022/12/02 02:56:11;;;;;;;39.07;22.07;;;1.20;99.90;;;-141.84;84.92;18537.72;4993154;28;20238;-61
2022/12/02 02:58:41;;;;;;;37.83;23.00;;;1.30;99.90;;;-141.84;85.17;18511.31;4993330;28;20605;-60
2022/12/02 03:01:15;;;;;;;41.03;23.43;;;1.20;99.90;;;-141.84;85.19;18572.25;4993483;28;20214;-60
2022/12/02 03:03:48;;;;;;;39.07;22.57;;;1.20;99.90;;;-141.84;85.61;18556.00;4993769;28;20229;-61
2022/12/02 03:06:18;;;;;;;40.83;23.10;;;1.20;99.90;;;-141.84;85.42;18558.03;4993244;28;20241;-60
2022/12/02 03:08:48;;;;;;;39.27;22.30;;;1.20;99.90;;;-141.84;85.19;18566.16;4992830;28;20298;-61
2022/12/02 03:11:17;;;;;;;37.47;22.80;;;1.30;99.90;;;-141.84;84.68;18562.09;4993100;28;20636;-62
2022/12/02 03:13:52;;;;;;;41.13;21.77;;;1.30;99.90;;;-141.84;85.19;18525.53;4992928;28;20226;-61
2022/12/02 03:16:25;;;;;;;38.83;21.90;;;1.20;99.90;;;-141.84;85.32;18529.59;4992810;28;20266;-61
2022/12/02 03:18:55;;;;;;;40.33;22.70;;;1.20;99.90;;;-141.84;85.54;18545.84;4993510;28;20242;-61
2022/12/02 03:21:26;;;;;;;40.80;22.13;;;1.10;99.90;;;-141.84;85.42;18549.91;5012679;28;20207;-62
2022/12/02 03:23:58;;;;;;;37.63;21.47;;;1.30;99.90;;;-141.84;85.14;18549.91;4996038;28;20227;-60
2022/12/02 03:26:28;;;;;;;40.63;22.37;;;1.20;99.90;;;-141.84;85.50;18543.81;4992774;28;20230;-61
2022/12/02 03:28:59;;;;;;;37.30;22.17;;;1.20;99.90;;;-141.84;85.45;18535.69;4992746;28;20231;-60
2022/12/02 03:31:28;;;;;;;39.67;22.07;;;1.20;99.90;;;-141.84;85.53;18570.22;4992733;28;20792;-62
2022/12/02 03:33:57;;;;;;;37.63;21.27;;;1.20;99.90;;;-141.84;85.58;18547.88;4992234;28;20207;-62
2022/12/02 03:36:27;;;;;;;40.63;23.47;;;1.20;99.90;;;-141.84;84.70;18545.84;4993192;28;20207;-61
2022/12/02 03:38:56;;;;;;;39.63;22.57;;;1.30;99.90;;;-141.84;84.20;18543.81;4992008;28;20789;-61
2022/12/02 03:41:25;;;;;;;40.13;22.63;;;1.30;99.90;;;-141.84;84.16;18556.00;4992312;28;20273;-61
2022/12/02 03:43:55;;;;;;;37.43;22.10;;;1.30;99.90;;;-141.84;84.97;18521.47;4996801;28;20699;-61
2022/12/02 03:46:26;;;;;;;40.10;22.33;;;1.30;99.90;;;-141.84;85.07;18562.09;4992227;28;20234;-62
2022/12/02 03:48:57;;;;;;;42.00;24.07;;;1.20;99.90;;;-141.84;85.06;18580.41;4992149;28;20231;-61
2022/12/02 03:51:26;;;;;;;38.03;22.47;;;1.20;99.90;;;-141.84;85.07;18558.03;4992727;28;20199;-61
2022/12/02 03:53:54;;;;;;;37.43;21.10;;;1.20;99.90;;;-141.84;85.44;18519.44;5007900;28;20812;-61
2022/12/02 03:56:23;;;;;;;39.73;22.40;;;1.20;99.90;;;-141.84;85.88;18527.56;4999735;28;20235;-61
2022/12/02 03:58:53;;;;;;;42.47;24.33;;;1.20;99.90;;;-141.84;85.72;18533.66;4992145;28;20238;-61
2022/12/02 04:01:23;;;;;;;38.53;22.60;;;1.30;99.90;;;-141.84;85.52;18537.72;4991921;28;20768;-61
2022/12/02 04:03:52;;;;;;;37.03;21.93;;;1.30;99.90;;;-141.84;86.05;18535.69;4992530;28;20586;-62
2022/12/02 04:06:20;;;;;;;42.83;23.73;;;1.10;99.90;;;-141.84;86.27;18547.88;4992404;28;20223;-61
2022/12/02 04:08:49;;;;;;;41.43;23.33;;;1.10;99.90;;;-141.84;86.40;18543.81;4991823;28;20227;-61
2022/12/02 04:11:17;;;;;;;42.00;23.37;;;1.10;99.90;;;-141.84;85.91;18521.47;4991898;28;20234;-61
2022/12/02 04:13:45;;;;;;;39.40;22.43;;;1.10;99.90;;;-141.84;85.46;18549.91;4991979;28;20257;-62
2022/12/02 04:16:14;;;;;;;41.07;22.70;;;1.10;99.90;;;-141.84;85.70;18537.72;4991752;28;24034;-62
2022/12/02 04:18:42;;;;;;;39.73;22.43;;;1.10;99.90;;;-141.84;85.54;18541.78;4992297;28;20238;-61
2022/12/02 04:21:11;;;;;;;38.50;22.13;;;1.10;99.90;;;-141.84;85.55;18545.84;4991755;28;20273;-61
2022/12/02 04:23:39;;;;;;;41.23;23.70;;;1.20;99.90;;;-141.84;85.26;18513.34;4991573;28;20289;-60
2022/12/02 04:26:08;;;;;;;40.07;23.03;;;1.10;99.90;;;-141.84;85.68;18527.56;4972347;28;20224;-61
2022/12/02 04:28:36;;;;;;;38.03;22.63;;;1.20;99.90;;;-141.84;86.04;18553.97;4972160;28;20232;-61
2022/12/02 04:31:04;;;;;;;40.03;22.53;;;1.10;99.90;;;-141.84;85.67;18509.28;4972325;28;20216;-61
2022/12/02 04:33:33;;;;;;;39.00;22.23;;;1.10;99.90;;;-141.84;85.77;18551.94;4972911;28;20268;-62
2022/12/02 04:36:01;;;;;;;36.80;22.50;;;1.10;99.90;;;-141.84;85.84;18545.84;4971970;28;20235;-62
2022/12/02 04:38:30;;;;;;;38.30;22.60;;;1.10;99.90;;;-141.84;85.87;18515.38;4972317;28;20231;-61
2022/12/02 04:40:58;;;;;;;41.93;22.73;;;1.20;99.90;;;-141.84;85.95;18511.31;4971964;28;20636;-62
2022/12/02 04:43:26;;;;;;;38.90;22.83;;;1.10;99.90;;;-141.84;86.43;18525.53;4981647;28;20722;-61
2022/12/02 04:45:55;;;;;;;39.63;22.43;;;1.10;99.90;;;-141.84;86.42;18529.59;4991879;28;20207;-62
2022/12/02 04:48:23;;;;;;;38.97;22.37;;;1.00;99.90;;;-141.84;86.47;18499.13;4991758;28;20231;-61
2022/12/02 04:50:51;;;;;;;39.93;22.87;;;1.00;99.90;;;-141.84;86.43;18535.69;5007332;28;20234;-63
2022/12/02 04:53:19;;;;;;;41.83;23.53;;;1.00;99.90;;;-141.84;86.23;18525.53;5010903;28;20706;-60
2022/12/02 04:55:49;;;;;;;40.57;23.30;;;1.00;99.90;;;-141.84;86.28;18523.50;4992511;28;20234;-60
2022/12/02 04:58:17;;;;;;;38.43;22.00;;;1.00;99.90;;;-141.84;86.08;18517.41;4991746;28;20325;-61
2022/12/02 05:00:45;;;;;;;40.50;23.00;;;1.10;99.90;;;-141.84;86.25;18495.06;4991699;28;20675;-61
2022/12/02 05:03:13;;;;;;;40.80;23.67;;;1.00;99.90;;;-141.84;86.82;18501.16;5010096;28;20233;-60
2022/12/02 05:05:41;;;;;;;40.33;23.43;;;1.00;99.90;;;-141.84;86.87;18525.53;5010853;28;20237;-62
2022/12/02 05:08:10;;;;;;;40.50;23.53;;;1.00;99.90;;;-141.84;86.73;18515.38;5010926;28;20241;-61
2022/12/02 05:10:38;;;;;;;39.47;22.67;;;1.10;99.90;;;-141.84;86.34;18523.50;5010998;28;20602;-61
2022/12/02 05:13:07;;;;;;;41.90;23.40;;;1.20;99.90;;;-141.84;86.21;18531.63;5011530;28;20242;-62
2022/12/02 05:15:35;;;;;;;42.27;23.80;;;1.10;99.90;;;-141.84;86.59;18537.72;5015214;28;20214;-61
2022/12/02 05:18:04;;;;;;;38.97;21.87;;;1.10;99.90;;;-141.84;87.00;18515.38;5001542;28;20223;-61
2022/12/02 05:20:32;;;;;;;42.80;24.73;;;1.00;99.90;;;-141.84;87.15;18527.56;5008115;28;20230;-62
2022/12/02 05:23:00;;;;;;;39.13;22.70;;;1.00;99.90;;;-141.84;87.13;18497.09;5014630;28;20686;-62
2022/12/02 05:25:28;;;;;;;41.17;23.43;;;1.10;99.90;;;-141.84;87.08;18529.59;5004218;28;20292;-61
2022/12/02 05:27:56;;;;;;;38.23;22.97;;;1.10;99.90;;;-141.84;86.52;18511.31;4995146;28;20222;-61
2022/12/02 05:30:26;;;;;;;42.33;23.63;;;1.10;99.90;;;-141.84;86.60;18558.03;4994487;28;20210;-62
2022/12/02 05:32:54;;;;;;;41.00;22.57;;;1.10;99.90;;;-141.84;86.65;18499.13;5027653;28;20240;-62
2022/12/02 05:35:22;;;;;;;40.27;23.10;;;1.10;99.90;;;-141.84;86.68;18505.22;5027622;28;20231;-61
2022/12/02 05:37:50;;;;;;;37.93;23.10;;;1.10;99.90;;;-141.84;86.82;18505.22;5006536;28;20785;-61
2022/12/02 05:40:19;;;;;;;44.37;24.23;;;1.10;99.90;;;-141.84;86.74;18545.84;4994062;28;20982;-61
2022/12/02 05:42:47;;;;;;;41.23;23.67;;;1.10;99.90;;;-141.84;86.81;18484.91;4993934;28;20234;-60
2022/12/02 05:45:19;;;;;;;39.77;23.90;;;1.20;99.90;;;-141.84;87.28;18503.19;4994509;28;20711;-61
2022/12/02 05:47:53;;;;;;;41.73;24.67;;;1.10;99.90;;;-141.84;87.32;18509.28;4994292;28;20231;-61
2022/12/02 05:50:22;;;;;;;43.40;24.87;;;1.00;99.90;;;-141.84;87.10;18521.47;4994153;28;20230;-60
2022/12/02 05:52:51;;;;;;;43.53;23.90;;;1.00;99.90;;;-141.84;87.24;18488.97;5009745;28;20230;-62
2022/12/02 05:55:22;;;;;;;45.67;25.27;;;1.00;99.90;;;-141.84;87.56;18501.16;5015854;28;20233;-61
2022/12/02 05:57:50;;;;;;;42.20;24.33;;;1.00;99.90;;;-141.84;87.56;18525.53;4994923;28;20243;-62
2022/12/02 06:00:21;;;;;;;44.17;23.87;;;1.00;99.90;;;-141.84;87.82;18523.50;4994127;28;20235;-61
2022/12/02 06:02:57;;;;;;;44.90;24.97;;;0.90;99.90;;;-141.84;87.74;18480.84;4994137;28;20666;-61
2022/12/02 06:05:29;;;;;;;40.70;24.43;;;1.00;99.90;;;-141.84;88.04;18503.19;4994462;28;20240;-62
2022/12/02 06:08:01;;;;;;;41.17;24.37;;;1.00;99.90;;;-141.84;87.95;18511.31;4992717;28;20221;-60
2022/12/02 06:10:32;;;;;;;44.57;25.57;;;1.00;99.90;;;-141.84;87.42;18547.88;5000368;28;20779;-61
2022/12/02 06:13:10;;;;;;;45.17;24.80;;;1.10;99.90;;;-141.84;87.46;18474.75;5013108;28;20704;-61
2022/12/02 06:15:39;;;;;;;45.50;24.87;;;1.00;99.90;;;-141.84;87.85;18509.28;4994039;28;20214;-61
2022/12/02 06:18:15;;;;;;;47.73;25.40;;;1.00;99.90;;;-141.84;87.90;18523.50;4992152;28;20224;-60
2022/12/02 06:20:45;;;;;;;43.60;23.90;;;1.00;99.90;;;-141.84;87.79;18499.13;4993330;28;20557;-61
2022/12/02 06:23:17;;;;;;;47.57;25.63;;;1.00;99.90;;;-141.84;87.81;18484.91;5015447;28;20250;-60
2022/12/02 06:25:47;;;;;;;46.10;25.20;;;1.00;99.90;;;-141.84;87.49;18503.19;5027571;28;20230;-61
2022/12/02 06:28:26;;;;;;;42.27;23.73;;;1.00;99.90;;;-141.84;87.97;18488.97;5030337;28;20276;-61
2022/12/02 06:30:58;;;;;;;46.47;25.10;;;1.00;99.90;;;-141.84;87.83;18484.91;5024657;28;20212;-62
2022/12/02 06:33:32;;;;;;;43.10;24.23;;;1.00;99.90;;;-141.84;87.78;18497.09;5027749;28;20197;-61
2022/12/02 06:36:05;;;;;;;47.00;25.17;;;1.00;99.90;;;-141.84;87.68;18517.41;4994721;28;20644;-61
2022/12/02 06:38:38;;;;;;;46.67;25.50;;;1.10;99.90;;;-141.84;87.46;18523.50;4991506;28;20228;-60
2022/12/02 06:41:16;;;;;;;47.07;24.90;;;1.10;99.90;;;-141.84;87.44;18505.22;4973618;28;20242;-60
2022/12/02 06:45:03;;;;;;;45.63;25.03;;;1.00;99.90;;;-141.84;87.69;18456.47;4997269;28;20243;-60
2022/12/02 06:46:35;;;;;;;43.73;24.30;;;0.90;99.90;;;-141.84;87.70;18484.91;5013354;28;20238;-60
2022/12/02 06:49:18;;;;;;;46.33;25.00;;;1.00;99.90;;;-141.84;87.43;18525.53;5013086;28;20321;-60
2022/12/02 06:51:48;;;;;;;46.23;24.37;;;1.00;99.90;;;-141.84;87.27;18501.16;5013639;28;20194;-60
2022/12/02 06:54:22;;;;;;;46.40;25.87;;;1.00;99.90;;;-141.84;87.32;18497.09;5006874;28;20639;-60
2022/12/02 06:56:51;;;;;;;46.97;24.87;;;1.00;99.90;;;-141.84;87.60;18470.69;4993150;28;20235;-61
2022/12/02 06:59:23;;;;;;;47.63;25.83;;;1.00;99.90;;;-141.84;87.84;18521.47;4992918;28;20230;-62
2022/12/02 07:01:56;;;;;;;48.37;26.00;;;1.00;99.90;;;-141.84;87.76;18511.31;4993052;28;20282;-61
2022/12/02 07:04:39;;;;;;;47.03;26.17;;;1.10;99.90;;;-141.84;87.60;18503.19;4993462;28;20639;-61
2022/12/02 07:07:19;;;;;;;48.30;25.60;;;1.00;99.90;;;-141.84;87.61;18497.09;4992787;28;20187;-61
2022/12/02 07:09:52;;;;;;;48.70;25.07;;;1.00;99.90;;;-141.84;87.69;18474.75;4993715;28;20194;-61
2022/12/02 07:12:25;;;;;;;43.40;26.13;;;1.10;99.90;;;-141.84;87.27;18507.25;5012506;28;20277;-61
2022/12/02 07:14:56;;;;;;;47.60;24.23;;;1.00;99.90;;;-141.84;87.35;18503.19;4996652;28;20232;-61
2022/12/02 07:17:29;;;;;;;45.13;25.00;;;1.00;99.90;;;-141.84;87.33;18503.19;4992881;28;20231;-60
2022/12/02 07:20:13;;;;;;;46.80;25.37;;;1.00;99.90;;;-141.84;87.40;18509.28;4993035;28;20230;-59
2022/12/02 07:22:47;;;;;;;46.23;24.20;;;1.10;99.90;;;-141.84;87.59;18499.13;4992756;28;20235;-59
2022/12/02 07:25:36;;;;;;;50.47;26.67;;;1.10;99.90;;;-141.84;87.49;18493.03;4992996;28;20234;-60
2022/12/02 07:28:22;;;;;;;49.23;24.57;;;1.10;99.90;;;-141.84;87.25;18495.06;4992411;28;20543;-60
2022/12/02 07:30:58;;;;;;;45.47;24.63;;;1.00;99.90;;;-141.84;86.94;18488.97;4993060;28;20200;-61
2022/12/02 07:33:26;;;;;;;45.57;24.47;;;1.20;99.90;;;-141.84;86.75;18468.66;5012339;28;20291;-62
2022/12/02 07:35:56;;;;;;;43.53;24.27;;;1.10;99.90;;;-141.84;86.63;18488.97;5011099;28;20273;-61
2022/12/02 07:38:24;;;;;;;45.10;24.00;;;1.10;99.90;;;-141.84;86.94;18511.31;5011951;28;20235;-61
2022/12/02 07:41:13;;;;;;;44.60;24.43;;;1.10;99.90;;;-141.84;86.60;18472.72;5011944;28;20308;-60
2022/12/02 07:43:41;;;;;;;44.27;24.23;;;1.10;99.90;;;-141.84;86.53;18501.16;5011479;28;20862;-60
2022/12/02 07:46:09;;;;;;;44.43;24.57;;;1.10;99.90;;;-141.84;86.20;18507.25;5011065;28;20552;-60
2022/12/02 07:48:38;;;;;;;49.40;25.43;;;1.10;99.90;;;-141.84;86.34;18501.16;5011806;28;20291;-61
2022/12/02 07:51:07;;;;;;;46.87;25.10;;;1.00;99.90;;;-141.84;86.41;18511.31;5012003;28;20230;-61
2022/12/02 07:53:35;;;;;;;45.77;25.83;;;1.10;99.90;;;-141.84;85.47;18533.66;5010161;28;20233;-62
2022/12/02 07:56:04;;;;;;;41.43;24.00;;;1.30;99.90;;;-141.84;84.82;18484.91;5001936;28;20238;-61
2022/12/02 07:58:32;;;;;;;44.77;24.00;;;1.30;99.90;;;-141.84;84.87;18525.53;4992143;28;20238;-62
2022/12/02 08:01:20;;;;;;;44.13;24.10;;;1.40;99.90;;;-141.84;85.06;18495.06;4991979;28;20239;-61
2022/12/02 08:03:48;;;;;;;43.27;23.63;;;1.40;99.90;;;-141.84;84.19;18529.59;4992258;28;20211;-61
2022/12/02 08:06:18;;;;;;;44.63;24.60;;;1.50;99.90;;;-141.84;84.22;18523.50;4991957;28;20614;-61
2022/12/02 08:08:46;;;;;;;42.67;23.73;;;1.50;99.90;;;-141.84;83.95;18521.47;4991441;28;20879;-60
2022/12/02 08:11:14;;;;;;;42.50;23.53;;;1.40;99.90;;;-141.84;83.56;18505.22;4991823;28;20231;-60
2022/12/02 08:13:42;;;;;;;43.20;22.87;;;1.40;99.90;;;-141.84;83.65;18523.50;4991239;28;20231;-61
2022/12/02 08:16:11;;;;;;;39.57;22.77;;;1.40;99.90;;;-141.84;84.20;18505.22;4991275;28;20652;-60
2022/12/02 08:18:39;;;;;;;41.97;24.27;;;1.40;99.90;;;-141.84;83.66;18517.41;4992245;28;20210;-60
2022/12/02 08:21:07;;;;;;;42.00;23.27;;;1.50;99.90;;;-141.84;83.50;18517.41;4991569;28;20583;-60
2022/12/02 08:23:38;;;;;;;42.50;23.57;;;1.40;99.90;;;-141.84;83.47;18525.53;4991407;28;20235;-60
2022/12/02 08:26:06;;;;;;;38.70;22.50;;;1.50;99.90;;;-141.84;84.14;18513.34;4990882;28;20247;-60
2022/12/02 08:28:34;;;;;;;45.37;24.77;;;1.40;99.90;;;-141.84;84.17;18533.66;4991323;28;20638;-61
2022/12/02 08:31:02;;;;;;;41.77;23.00;;;1.40;99.90;;;-141.84;84.05;18566.16;4991496;28;20207;-61
2022/12/02 08:33:30;;;;;;;43.23;24.20;;;1.50;99.90;;;-141.84;84.09;18543.81;4992180;28;20258;-59
2022/12/02 08:35:59;;;;;;;43.00;24.00;;;1.40;99.90;;;-141.84;84.30;18525.53;5008448;28;20234;-60
2022/12/02 08:38:27;;;;;;;43.13;22.40;;;1.30;99.90;;;-141.84;84.36;18543.81;5010892;28;20230;-62
2022/12/02 08:40:56;;;;;;;42.83;23.00;;;1.30;99.90;;;-141.84;84.67;18537.72;5011094;28;20745;-62
2022/12/02 08:43:24;;;;;;;43.13;24.90;;;1.30;99.90;;;-141.84;84.55;18509.28;5006420;28;20718;-60
2022/12/02 08:45:53;;;;;;;43.33;23.77;;;1.30;99.90;;;-141.84;84.49;18551.94;5005399;28;20268;-61
2022/12/02 08:48:21;;;;;;;43.00;23.40;;;1.30;99.90;;;-141.84;84.34;18545.84;5010870;28;20338;-60
2022/12/02 08:50:49;;;;;;;41.83;23.20;;;1.30;99.90;;;-141.84;84.63;18499.13;5010890;28;20226;-61
2022/12/02 08:53:17;;;;;;;43.50;22.77;;;1.20;99.90;;;-141.84;85.20;18533.66;5010714;28;20233;-60
2022/12/02 08:55:46;;;;;;;38.40;23.03;;;1.20;99.90;;;-141.84;85.22;18511.31;5003993;28;20259;-60
2022/12/02 08:58:15;;;;;;;41.13;23.07;;;1.20;99.90;;;-141.84;85.58;18499.13;4992713;28;20245;-59
2022/12/02 09:00:44;;;;;;;45.33;23.97;;;1.20;99.90;;;-141.84;85.50;18549.91;5011603;28;20214;-62
2022/12/02 09:03:12;;;;;;;40.20;22.03;;;1.20;99.90;;;-141.84;85.73;18484.91;4991912;28;20223;-60
2022/12/02 09:05:41;;;;;;;42.10;23.07;;;1.20;99.90;;;-141.84;86.03;18513.34;5005561;28;20605;-60
2022/12/02 09:08:09;;;;;;;41.90;23.93;;;1.10;99.90;;;-141.84;86.07;18505.22;5010526;28;20241;-60
2022/12/02 09:10:38;;;;;;;43.77;23.27;;;1.20;99.90;;;-141.84;85.69;18517.41;5010411;28;20224;-61
2022/12/02 09:13:06;;;;;;;39.87;21.67;;;1.20;99.90;;;-141.84;85.19;18529.59;5010862;28;20286;-61
2022/12/02 09:15:35;;;;;;;44.20;22.73;;;1.20;99.90;;;-141.84;85.23;18535.69;5011045;28;20671;-60
2022/12/02 09:18:04;;;;;;;42.27;22.67;;;1.20;99.90;;;-141.84;85.36;18503.19;5010370;28;20230;-61
2022/12/02 09:20:39;;;;;;;41.00;22.43;;;1.20;99.90;;;-141.84;85.45;18515.38;5010376;28;20234;-62
2022/12/02 09:23:07;;;;;;;39.97;22.40;;;1.20;99.90;;;-141.84;85.31;18509.28;5010293;28;20748;-62
2022/12/02 09:25:36;;;;;;;43.17;22.33;;;1.30;99.90;;;-141.84;85.54;18525.53;5009827;28;20293;-61
2022/12/02 09:28:04;;;;;;;41.00;23.37;;;1.20;99.90;;;-141.84;85.31;18501.16;5010381;28;20208;-59
2022/12/02 09:30:32;;;;;;;41.17;22.50;;;1.20;99.90;;;-141.84;85.45;18545.84;5010614;28;20210;-61
2022/12/02 09:33:02;;;;;;;43.10;23.63;;;1.20;99.90;;;-141.84;85.57;18503.19;5010501;28;20299;-60
2022/12/02 09:35:30;;;;;;;39.23;22.53;;;1.20;99.90;;;-141.84;85.79;18480.84;5010301;28;20659;-60
2022/12/02 09:37:58;;;;;;;39.07;22.20;;;1.10;99.90;;;-141.84;85.93;18495.06;5010547;28;20589;-59
2022/12/02 09:40:27;;;;;;;46.10;24.27;;;1.10;99.90;;;-141.84;85.79;18535.69;5010302;28;20228;-56
2022/12/02 09:42:55;;;;;;;39.03;21.47;;;1.20;99.90;;;-141.84;85.73;18499.13;5010394;28;20198;-58
2022/12/02 09:45:24;;;;;;;41.70;22.73;;;1.20;99.90;;;-141.84;85.36;18503.19;5010844;28;20276;-58
2022/12/02 09:47:53;;;;;;;41.07;22.23;;;1.30;99.90;;;-141.84;84.95;18562.09;5010001;28;20254;-57
2022/12/02 09:50:25;;;;;;;36.97;20.23;;;1.30;99.90;;;-141.84;84.97;18529.59;5010231;28;20741;-57
2022/12/02 09:52:59;;;;;;;40.33;21.77;;;1.40;99.90;;;-141.84;84.85;18521.47;5010413;28;20281;-59
2022/12/02 09:55:27;;;;;;;37.33;21.67;;;1.30;99.90;;;-141.84;85.47;18509.28;5009932;28;20304;-60
2022/12/02 09:57:56;;;;;;;40.90;21.50;;;1.30;99.90;;;-141.84;85.54;18517.41;5010404;28;20214;-60
2022/12/02 10:00:25;;;;;;;41.77;22.27;;;1.30;99.90;;;-141.84;84.95;18535.69;5013004;28;20203;-59
2022/12/02 10:02:54;;;;;;;37.37;21.87;;;1.30;99.90;;;-141.84;84.81;18541.78;5013890;28;20242;-60
2022/12/02 10:05:27;;;;;;;36.47;20.77;;;1.30;99.90;;;-141.84;84.58;18503.19;5013362;28;20293;-61
2022/12/02 10:07:59;;;;;;;38.27;20.97;;;1.30;99.90;;;-141.84;84.39;18505.22;5013570;28;20234;-59
2022/12/02 10:10:37;;;;;;;37.33;21.80;;;1.40;99.90;;;-141.84;84.16;18537.72;5013465;28;20235;-60
2022/12/02 10:13:05;;;;;;;36.10;21.43;;;1.40;99.90;;;-141.84;84.21;18513.34;5013749;28;20191;-59
2022/12/02 10:15:35;;;;;;;37.70;21.00;;;1.40;99.90;;;-141.84;84.08;18523.50;5013877;28;20314;-59